• Join FlightAware (Why Join?)
  • Login
  • US Flag 
04:23AM EDT


 

Airport Tracker/Info


-or-


 

Live Flight TrackerFlight Track Log ✈ SWA1021 ✈ 08-Apr-2013 ✈ KOAK - KLAX

Flight Track Log - Related Links

Times and Time Zones

All times are in EDT time to prevent confusion due to time zone crossing. See the SWA1021 flight status page for this flight to view local times or setup timezone preferences in your user account.

Time Position Orientation Groundspeed Altitude Reporting Facility
EDT Latitude Longitude Course Direction KTS MPH feet Rate Location/Type
10:10AM 37.7333 -122.2833 104° East 192 221 2,900  Level Northern Cal TRACON
10:11AM 37.7500 -122.3333 293° West 217 250 5,800 2,880 Climbing Northern Cal TRACON
10:12AM 37.7167 -122.4167 243° Southwest 292 336 8,400 2,340 Climbing Northern Cal TRACON
10:13AM 37.6333 -122.4333 189° South 350 403 10,500 2,100 Climbing Northern Cal TRACON
10:14AM 37.6031 -122.4247 167° South 360 414 11,100 1,980 Climbing Oakland Center
10:15AM 37.5017 -122.3628 154° Southeast 419 482 13,100 2,280 Climbing Oakland Center
10:16AM 37.2492 -122.2795 104° East  Level FlightAware Approximate
10:16AM 37.4225 -122.2536 132° Southeast 427 491 15,800  Level Oakland Center
10:17AM 37.3378 -122.1411 133° Southeast 442 509 18,600 2,400 Climbing Oakland Center
10:18AM 37.2508 -122.0258 133° Southeast 455 524 20,700 2,040 Climbing Oakland Center
10:19AM 37.1606 -121.9078 134° Southeast 468 539 22,800 1,140 Climbing Oakland Center
10:20AM 37.0664 -121.7839 134° Southeast 489 563 23,000 60 Climbing Oakland Center
10:21AM 36.9683 -121.6597 135° Southeast 501 577 23,000  Level Oakland Center
10:22AM 36.8725 -121.5333 133° Southeast 503 579 23,000  Level Oakland Center
10:23AM 36.7744 -121.4078 134° Southeast 487 560 23,000  Level Oakland Center
10:24AM 36.6808 -121.2861 134° Southeast 486 559 23,000  Level Oakland Center
10:25AM 36.5856 -121.1639 134° Southeast 492 566 23,000  Level Oakland Center
10:26AM 36.4903 -121.0406 134° Southeast 496 571 23,000  Level Oakland Center
10:27AM 36.3933 -120.9164 134° Southeast 500 575 23,000  Level Oakland Center
10:28AM 36.2961 -120.7897 134° Southeast 506 582 23,000  Level Oakland Center
10:29AM 36.1967 -120.6669 135° Southeast 505 581 23,000  Level Oakland Center
10:30AM 36.0783 -120.5164 134° Southeast 508 585 23,000  Level Oakland Center
10:31AM 35.9786 -120.3906 134° Southeast 509 586 23,000  Level Oakland Center
10:32AM 35.8797 -120.2672 135° Southeast 505 581 23,000  Level Oakland Center
10:33AM 35.7817 -120.1456 135° Southeast 499 574 23,000  Level Oakland Center
10:34AM 35.6833 -120.0250 135° Southeast 495 570 23,000  Level Oakland Center
10:35AM 35.5744 -119.9161 141° Southeast 501 577 23,000  Level Oakland Center
10:36AM 35.4614 -119.8183 145° Southeast 493 567 23,000  Level Oakland Center
10:37AM 35.3469 -119.7206 145° Southeast 498 573 23,000  Level Oakland Center
10:38AM 35.2342 -119.6233 145° Southeast 495 570 23,000  Level Oakland Center
10:39AM 35.1214 -119.5264 145° Southeast 493 567 23,000  Level Oakland Center
10:40AM 35.0092 -119.4303 145° Southeast 494 568 23,000  Level Los Angeles Center
10:41AM 34.8969 -119.3347 145° Southeast 493 567 23,000  Level Los Angeles Center
10:42AM 34.7850 -119.2403 145° Southeast 489 563 23,000 -840 Level Los Angeles Center
10:43AM 34.6575 -119.1322 145° Southeast 467 537 21,400 -1,620 Descending Los Angeles Center
10:44AM 34.5661 -119.0600 147° Southeast 447 514 19,700 -1,800 Descending Los Angeles Center
10:45AM 34.4686 -118.9775 145° Southeast 431 496 17,400 -2,160 Descending Los Angeles Center
10:46AM 34.3369 -118.8739 147° Southeast 396 456 14,900 -2,100 Descending Los Angeles Center
10:47AM 34.2364 -118.8367 163° South 378 435 13,100 -1,680 Descending Los Angeles Center
10:48AM 34.1381 -118.8008 163° South 368 423 11,500 -1,320 Descending Los Angeles Center
10:49AM 34.0447 -118.7456 154° Southeast 370 426 10,400 -840 Descending Los Angeles Center
10:50AM 34.0261 -118.6336 101° East 310 357 9,900 -600 Descending Los Angeles Center
10:52AM 34.0206 -118.5628 95° East 283 326 9,200 -1,020 Descending Los Angeles Center
10:53AM 34.0100 -118.4592 97° East 270 311 7,800 -1,260 Descending Los Angeles Center
10:54AM 34.0172 -118.3675 85° East 247 284 6,600 -1,320 Descending Los Angeles Center
10:55AM 34.0200 -118.2892 88° East 236 272 5,200 -1,200 Descending Los Angeles Center
10:56AM 34.0147 -118.2197 95° East 227 261 4,200 -1,140 Descending Los Angeles Center
10:57AM 33.9642 -118.2111 172° South 211 243 2,900 -1,020 Descending Los Angeles Center
10:58AM 33.9669 -118.2711 273° West 193 222 2,200 -720 Descending Los Angeles Center
10:59AM 33.9608 -118.3228 262° West 173 199 1,500 -660 Descending Los Angeles Center
11:00AM 33.9575 -118.3611 264° West 138 159 900 -600 Descending Los Angeles Center
11:03AM 33.9333 -118.4000 228° Southwest  Level FlightAware Approximate
11:10AM 33.9425 -118.4081 228° Southwest  Level Estimated